createdAt,value
2023-01-30T00:02:01.833Z,31.35
2023-01-30T00:04:28.430Z,32.50
2023-01-30T00:06:57.316Z,30.90
2023-01-30T00:09:33.510Z,31.27
2023-01-30T00:12:02.603Z,31.23
2023-01-30T00:14:29.444Z,32.75
2023-01-30T00:16:59.135Z,30.92
2023-01-30T00:19:28.178Z,31.05
2023-01-30T00:21:56.734Z,32.17
2023-01-30T00:24:26.743Z,26.55
2023-01-30T00:29:23.075Z,30.60
2023-01-30T00:31:54.536Z,29.15
2023-01-30T00:34:23.359Z,27.50
2023-01-30T00:37:07.145Z,28.55
2023-01-30T00:39:36.820Z,27.55
2023-01-30T00:42:24.992Z,27.65
2023-01-30T00:45:11.220Z,28.70
2023-01-30T00:47:39.080Z,27.55
2023-01-30T00:50:06.148Z,31.75
2023-01-30T00:52:35.133Z,31.27
2023-01-30T00:55:04.247Z,27.10
2023-01-30T00:57:33.224Z,28.02
2023-01-30T00:59:59.859Z,28.50
2023-01-30T01:02:30.023Z,32.83
2023-01-30T01:05:02.196Z,27.63
2023-01-30T01:07:31.842Z,25.30
2023-01-30T01:09:59.077Z,28.25
2023-01-30T01:12:25.698Z,28.38
2023-01-30T01:14:52.357Z,27.10
2023-01-30T01:17:19.096Z,30.67
2023-01-30T01:19:50.980Z,27.05
2023-01-30T01:22:24.928Z,24.38
2023-01-30T01:24:56.315Z,25.85
2023-01-30T01:27:23.063Z,25.98
2023-01-30T01:29:51.909Z,26.92
2023-01-30T01:32:27.932Z,26.13
2023-01-30T01:34:54.596Z,25.73
2023-01-30T01:37:25.246Z,27.30
2023-01-30T01:40:10.473Z,27.48
2023-01-30T01:42:45.047Z,28.35
2023-01-30T01:45:22.596Z,26.98
2023-01-30T01:48:03.838Z,30.02
2023-01-30T01:50:46.511Z,24.98
2023-01-30T01:53:18.599Z,28.05
2023-01-30T01:55:48.501Z,26.58
2023-01-30T01:58:24.353Z,27.85
2023-01-30T02:00:57.458Z,26.20
2023-01-30T02:03:26.807Z,17.70
2023-01-30T02:06:02.519Z,24.27
2023-01-30T02:08:41.240Z,27.85
2023-01-30T02:11:17.194Z,25.15
2023-01-30T02:13:49.111Z,26.63
2023-01-30T02:16:15.740Z,26.58
2023-01-30T02:18:46.851Z,26.10
2023-01-30T02:21:40.391Z,25.50
2023-01-30T02:24:12.942Z,28.48
2023-01-30T02:26:53.004Z,26.15
2023-01-30T02:29:36.143Z,26.92
2023-01-30T02:32:33.226Z,29.85
2023-01-30T02:35:05.699Z,27.80
2023-01-30T02:37:59.510Z,25.35
2023-01-30T02:41:00.355Z,26.60
2023-01-30T02:43:39.411Z,27.00
2023-01-30T02:46:17.827Z,29.10
2023-01-30T02:49:02.589Z,27.05
2023-01-30T02:51:33.734Z,25.50
2023-01-30T02:54:00.725Z,24.13
2023-01-30T02:56:27.936Z,25.55
2023-01-30T02:59:00.872Z,25.95
2023-01-30T03:02:05.169Z,27.10
2023-01-30T03:04:47.205Z,23.75
2023-01-30T03:07:22.469Z,25.77
2023-01-30T03:10:08.801Z,25.95
2023-01-30T03:13:05.166Z,26.55
2023-01-30T03:15:48.069Z,26.10
2023-01-30T03:18:16.416Z,25.48
2023-01-30T03:20:48.482Z,23.75
2023-01-30T03:23:15.181Z,25.60
2023-01-30T03:25:50.610Z,24.52
2023-01-30T03:28:24.667Z,22.85
2023-01-30T03:30:52.161Z,21.77
2023-01-30T03:33:22.975Z,24.23
2023-01-30T03:35:52.123Z,22.43
2023-01-30T03:38:19.229Z,24.52
2023-01-30T03:40:46.688Z,28.48
2023-01-30T03:43:21.775Z,24.17
2023-01-30T03:45:48.425Z,23.23
2023-01-30T03:48:15.681Z,27.65
2023-01-30T03:50:49.660Z,24.50
2023-01-30T03:53:16.771Z,22.52
2023-01-30T03:55:44.837Z,22.50
2023-01-30T03:58:11.516Z,23.08
2023-01-30T04:00:43.343Z,24.58
2023-01-30T04:03:09.981Z,22.30
2023-01-30T04:05:39.060Z,23.80
2023-01-30T04:08:13.249Z,24.92
2023-01-30T04:10:42.313Z,25.30
2023-01-30T04:13:13.809Z,23.25
2023-01-30T04:15:42.644Z,21.50
2023-01-30T04:18:28.002Z,21.67
2023-01-30T04:21:09.812Z,23.08
2023-01-30T04:23:44.093Z,24.73
2023-01-30T04:26:21.344Z,21.27
2023-01-30T04:28:48.053Z,26.42
2023-01-30T04:31:18.767Z,21.88
2023-01-30T04:34:17.879Z,21.48
2023-01-30T04:36:47.825Z,22.08
2023-01-30T04:39:14.855Z,21.35
2023-01-30T04:41:44.958Z,23.05
2023-01-30T04:44:12.724Z,22.38
2023-01-30T04:46:48.289Z,22.15
2023-01-30T04:49:15.626Z,21.30
2023-01-30T04:51:43.370Z,20.67
2023-01-30T04:54:12.469Z,21.27
2023-01-30T04:56:43.181Z,19.05
2023-01-30T04:59:10.024Z,21.02
2023-01-30T05:01:41.753Z,18.02
2023-01-30T05:04:10.893Z,19.05
2023-01-30T05:06:37.616Z,19.20
2023-01-30T05:09:06.695Z,18.48
2023-01-30T05:11:33.986Z,17.58
2023-01-30T05:14:00.599Z,16.45
2023-01-30T05:16:27.799Z,14.98
2023-01-30T05:18:56.511Z,17.52
2023-01-30T05:21:27.654Z,15.80
2023-01-30T05:23:57.510Z,18.85
2023-01-30T05:26:25.496Z,14.98
2023-01-30T05:28:55.853Z,20.42
2023-01-30T05:31:26.174Z,14.93
2023-01-30T05:33:55.107Z,13.90
2023-01-30T05:36:25.018Z,13.80
2023-01-30T05:38:54.300Z,16.08
2023-01-30T05:41:21.265Z,16.20
2023-01-30T05:43:51.741Z,15.32
2023-01-30T05:46:25.587Z,14.65
2023-01-30T05:48:54.480Z,15.45
2023-01-30T05:51:23.412Z,14.25
2023-01-30T05:53:51.882Z,18.85
2023-01-30T05:56:22.548Z,12.35
2023-01-30T05:58:55.769Z,15.50
2023-01-30T06:01:28.824Z,16.70
2023-01-30T06:03:57.501Z,13.43
2023-01-30T06:06:35.753Z,14.43
2023-01-30T06:09:02.633Z,16.92
2023-01-30T06:11:31.653Z,15.07
2023-01-30T06:13:58.338Z,15.20
2023-01-30T06:16:31.722Z,12.20
2023-01-30T06:19:03.675Z,12.05
2023-01-30T06:21:31.159Z,15.23
2023-01-30T06:23:57.801Z,12.55
2023-01-30T06:26:24.447Z,12.30
2023-01-30T06:28:51.125Z,11.13
2023-01-30T06:31:18.397Z,13.30
2023-01-30T06:33:45.094Z,11.57
2023-01-30T06:36:13.967Z,13.15
2023-01-30T06:38:45.460Z,10.68
2023-01-30T06:41:12.096Z,13.27
2023-01-30T06:43:38.775Z,11.93
2023-01-30T06:46:08.100Z,11.82
2023-01-30T06:48:37.728Z,12.55
2023-01-30T06:51:04.580Z,10.57
2023-01-30T06:53:31.227Z,11.35
2023-01-30T06:56:01.802Z,12.43
2023-01-30T06:58:28.708Z,14.18
2023-01-30T07:00:57.704Z,12.10
2023-01-30T07:03:26.534Z,13.65
2023-01-30T07:05:53.377Z,12.63
2023-01-30T07:08:24.248Z,12.10
2023-01-30T07:10:51.001Z,14.55
2023-01-30T07:13:17.827Z,13.63
2023-01-30T07:15:45.434Z,15.35
2023-01-30T07:18:12.381Z,17.33
2023-01-30T07:23:20.600Z,14.55
2023-01-30T07:25:47.227Z,15.25
2023-01-30T07:28:15.888Z,13.90
2023-01-30T07:30:53.047Z,16.30
2023-01-30T07:33:22.251Z,17.05
2023-01-30T07:35:51.399Z,19.70
2023-01-30T07:38:18.031Z,17.38
2023-01-30T07:40:44.762Z,14.57
2023-01-30T07:43:16.882Z,15.80
2023-01-30T07:45:47.724Z,16.70
2023-01-30T07:48:16.476Z,19.23
2023-01-30T07:50:46.721Z,18.50
2023-01-30T07:53:18.719Z,15.45
2023-01-30T07:55:45.626Z,13.23
2023-01-30T07:58:16.835Z,13.90
2023-01-30T08:00:44.424Z,18.50
2023-01-30T08:03:18.021Z,20.83
2023-01-30T08:05:50.002Z,20.85
2023-01-30T08:08:19.892Z,14.45
2023-01-30T08:10:49.096Z,18.50
2023-01-30T08:13:15.725Z,17.15
2023-01-30T08:15:42.367Z,16.45
2023-01-30T08:18:11.257Z,15.25
2023-01-30T08:20:38.050Z,14.05
2023-01-30T08:23:07.297Z,16.08
2023-01-30T08:25:35.375Z,11.38
2023-01-30T08:28:02.591Z,12.50
2023-01-30T08:30:30.533Z,16.17
2023-01-30T08:32:58.499Z,13.25
2023-01-30T08:35:27.755Z,10.73
2023-01-30T08:37:54.363Z,13.57
2023-01-30T08:40:24.167Z,12.32
2023-01-30T08:42:51.086Z,11.45
2023-01-30T08:45:17.723Z,11.98
2023-01-30T08:47:45.549Z,10.57
2023-01-30T08:50:17.748Z,10.35
2023-01-30T08:52:44.761Z,11.13
2023-01-30T08:55:13.564Z,10.57
2023-01-30T08:57:42.415Z,9.18
2023-01-30T09:00:14.323Z,10.70
2023-01-30T09:02:41.178Z,10.55
2023-01-30T09:05:08.812Z,13.38
2023-01-30T09:07:35.502Z,10.55
2023-01-30T09:10:02.078Z,7.95
2023-01-30T09:12:28.747Z,9.02
2023-01-30T09:14:59.561Z,6.18
2023-01-30T09:17:26.355Z,8.32
2023-01-30T09:19:55.274Z,10.85
2023-01-30T09:22:24.146Z,10.07
2023-01-30T09:24:50.790Z,10.85
2023-01-30T09:27:17.440Z,5.75
2023-01-30T09:29:45.391Z,11.68
2023-01-30T09:32:12.176Z,12.23
2023-01-30T09:34:38.805Z,8.65
2023-01-30T09:37:08.154Z,8.88
2023-01-30T09:39:35.722Z,10.13
2023-01-30T09:42:07.297Z,7.28
2023-01-30T09:44:55.202Z,11.43
2023-01-30T09:47:38.627Z,8.57
2023-01-30T09:50:24.639Z,12.38
2023-01-30T09:53:35.844Z,10.57
2023-01-30T09:56:06.409Z,8.20
2023-01-30T09:58:53.804Z,16.58
2023-01-30T10:01:42.846Z,9.93
2023-01-30T10:04:58.937Z,10.82
2023-01-30T10:07:41.798Z,15.52
2023-01-30T10:10:26.706Z,9.65
2023-01-30T10:13:10.192Z,18.55
2023-01-30T10:15:58.189Z,16.80
2023-01-30T10:18:39.262Z,10.05
2023-01-30T10:21:26.100Z,13.07
2023-01-30T10:24:20.620Z,10.95
2023-01-30T10:26:48.066Z,13.48
2023-01-30T10:29:33.694Z,7.43
2023-01-30T10:32:10.356Z,11.55
2023-01-30T10:34:40.743Z,13.85
2023-01-30T10:37:30.697Z,11.05
2023-01-30T10:40:23.428Z,10.15
2023-01-30T10:45:49.128Z,10.13
2023-01-30T10:48:34.325Z,9.80
2023-01-30T10:51:23.170Z,10.07
2023-01-30T10:54:01.602Z,7.47
2023-01-30T10:56:59.410Z,9.30
2023-01-30T10:59:38.464Z,13.50
2023-01-30T11:02:34.244Z,12.50
2023-01-30T11:05:12.615Z,12.60
2023-01-30T11:07:40.581Z,11.82
2023-01-30T11:10:17.995Z,9.30
2023-01-30T11:12:44.691Z,9.23
2023-01-30T11:15:11.827Z,10.60
2023-01-30T11:17:43.021Z,9.20
2023-01-30T11:20:22.453Z,15.15
2023-01-30T11:22:50.985Z,11.02
2023-01-30T11:25:21.794Z,10.18
2023-01-30T11:28:13.969Z,9.63
2023-01-30T11:30:42.877Z,12.45
2023-01-30T11:33:21.777Z,9.48
2023-01-30T11:36:07.245Z,14.15
2023-01-30T11:38:39.311Z,8.38
2023-01-30T11:41:13.395Z,7.75
2023-01-30T11:43:40.331Z,9.73
2023-01-30T11:46:12.629Z,12.32
2023-01-30T11:49:09.122Z,15.13
2023-01-30T11:51:42.957Z,7.10
2023-01-30T11:54:30.963Z,11.15
2023-01-30T11:57:01.665Z,11.68
2023-01-30T11:59:54.917Z,11.07
2023-01-30T12:02:25.909Z,7.93
2023-01-30T12:05:00.151Z,12.60
2023-01-30T12:07:31.417Z,7.45
2023-01-30T12:09:59.254Z,8.23
2023-01-30T12:12:35.727Z,10.25
2023-01-30T12:15:29.553Z,8.85
2023-01-30T12:18:01.774Z,6.45
2023-01-30T12:20:43.057Z,12.38
2023-01-30T12:23:18.768Z,8.57
2023-01-30T12:26:15.757Z,10.00
2023-01-30T12:29:01.953Z,8.38
2023-01-30T12:31:46.893Z,15.13
2023-01-30T12:34:13.831Z,10.80
2023-01-30T12:36:52.291Z,8.70
2023-01-30T12:39:56.514Z,10.18
2023-01-30T12:42:52.543Z,14.68
2023-01-30T12:45:26.321Z,12.60
2023-01-30T12:48:08.329Z,11.48
2023-01-30T12:50:54.451Z,10.25
2023-01-30T12:53:31.494Z,8.13
2023-01-30T12:56:17.919Z,11.27
2023-01-30T12:59:01.780Z,9.00
2023-01-30T13:01:52.345Z,10.00
2023-01-30T13:04:34.460Z,10.85
2023-01-30T13:07:38.087Z,9.40
2023-01-30T13:10:40.145Z,11.50
2023-01-30T13:13:31.490Z,13.90
2023-01-30T13:16:06.642Z,11.77
2023-01-30T13:18:36.826Z,10.00
2023-01-30T13:21:30.939Z,15.48
2023-01-30T13:24:20.372Z,10.60
2023-01-30T13:26:50.824Z,8.13
2023-01-30T13:29:29.952Z,12.93
2023-01-30T13:32:02.467Z,9.35
2023-01-30T13:34:36.507Z,10.25
2023-01-30T13:37:12.327Z,8.15
2023-01-30T13:40:03.778Z,8.48
2023-01-30T13:42:43.728Z,13.80
2023-01-30T13:45:22.126Z,10.63
2023-01-30T13:48:04.231Z,16.30
2023-01-30T13:50:54.230Z,7.88
2023-01-30T13:53:30.126Z,14.13
2023-01-30T13:56:27.174Z,8.23
2023-01-30T13:59:12.569Z,14.13
2023-01-30T14:02:04.282Z,7.65
2023-01-30T14:04:39.902Z,8.47
2023-01-30T14:07:12.521Z,9.15
2023-01-30T14:10:05.037Z,8.77
2023-01-30T14:12:40.995Z,9.30
2023-01-30T14:15:15.623Z,16.30
2023-01-30T14:18:02.501Z,12.35
2023-01-30T14:20:31.688Z,11.70
2023-01-30T14:23:21.402Z,10.63
2023-01-30T14:25:58.507Z,8.38
2023-01-30T14:28:25.113Z,9.93
2023-01-30T14:30:54.525Z,12.20
2023-01-30T14:33:23.560Z,11.15
2023-01-30T14:36:00.331Z,11.70
2023-01-30T14:38:33.576Z,11.00
2023-01-30T14:41:02.621Z,9.45
2023-01-30T14:43:35.225Z,10.23
2023-01-30T14:46:20.082Z,9.52
2023-01-30T14:49:01.475Z,10.25
2023-01-30T14:51:44.147Z,11.43
2023-01-30T14:54:14.399Z,11.13
2023-01-30T14:56:56.478Z,10.65
2023-01-30T14:59:25.088Z,10.68
2023-01-30T15:01:57.472Z,8.68
2023-01-30T15:04:56.247Z,11.45
2023-01-30T15:07:46.925Z,9.95
2023-01-30T15:11:01.838Z,24.67
2023-01-30T15:13:46.620Z,12.88
2023-01-30T15:16:36.602Z,11.18
2023-01-30T15:19:25.837Z,7.53
2023-01-30T15:22:34.370Z,10.43
2023-01-30T15:25:14.973Z,8.82
2023-01-30T15:28:03.246Z,9.13
2023-01-30T15:30:44.769Z,9.55
2023-01-30T15:33:29.857Z,11.43
2023-01-30T15:36:01.534Z,11.75
2023-01-30T15:38:32.751Z,11.98
2023-01-30T15:41:05.257Z,8.07
2023-01-30T15:43:50.749Z,9.75
2023-01-30T15:46:41.048Z,9.90
2023-01-30T15:49:07.632Z,11.80
2023-01-30T15:51:34.895Z,11.05
2023-01-30T15:54:08.584Z,13.48
2023-01-30T15:56:35.477Z,11.20
2023-01-30T15:59:07.447Z,11.05
2023-01-30T16:01:36.449Z,10.77
2023-01-30T16:04:07.856Z,8.98
2023-01-30T16:06:37.188Z,14.95
2023-01-30T16:09:14.600Z,8.25
2023-01-30T16:11:48.341Z,9.07
2023-01-30T16:14:17.953Z,10.45
2023-01-30T16:16:48.532Z,9.82
2023-01-30T16:19:37.764Z,11.98
2023-01-30T16:22:10.183Z,9.07
2023-01-30T16:24:46.300Z,15.00
2023-01-30T16:27:34.498Z,13.75
2023-01-30T16:30:07.613Z,9.95
2023-01-30T16:32:35.725Z,13.05
2023-01-30T16:35:27.450Z,13.32
2023-01-30T16:37:56.929Z,11.63
2023-01-30T16:40:31.831Z,15.43
2023-01-30T16:43:02.424Z,9.15
2023-01-30T16:45:35.391Z,11.98
2023-01-30T16:48:17.002Z,8.68
2023-01-30T16:50:48.039Z,10.87
2023-01-30T16:53:18.457Z,8.57
2023-01-30T16:55:57.854Z,14.10
2023-01-30T16:58:28.661Z,9.93
2023-01-30T17:00:55.448Z,13.07
2023-01-30T17:03:36.623Z,10.82
2023-01-30T17:06:12.369Z,10.70
2023-01-30T17:08:46.899Z,11.30
2023-01-30T17:11:37.543Z,11.57
2023-01-30T17:14:30.481Z,11.63
2023-01-30T17:17:07.850Z,10.50
2023-01-30T17:19:35.764Z,11.38
2023-01-30T17:22:24.289Z,14.00
2023-01-30T17:24:53.942Z,8.52
2023-01-30T17:27:20.647Z,14.52
2023-01-30T17:29:49.777Z,17.83
2023-01-30T17:32:21.389Z,13.45
2023-01-30T17:34:49.309Z,12.35
2023-01-30T17:37:19.722Z,10.82
2023-01-30T17:39:46.713Z,10.32
2023-01-30T17:42:21.880Z,12.18
2023-01-30T17:44:48.735Z,13.32
2023-01-30T17:47:17.593Z,9.43
2023-01-30T17:49:49.753Z,13.35
2023-01-30T17:52:24.575Z,11.25
2023-01-30T17:54:51.381Z,14.75
2023-01-30T17:57:22.103Z,6.28
2023-01-30T17:59:54.779Z,13.15
2023-01-30T18:02:24.108Z,10.20
2023-01-30T18:04:50.724Z,10.27
2023-01-30T18:07:22.813Z,10.57
2023-01-30T18:09:51.957Z,9.32
2023-01-30T18:12:18.574Z,13.93
2023-01-30T18:14:47.431Z,15.10
2023-01-30T18:17:14.106Z,9.38
2023-01-30T18:19:41.079Z,9.85
2023-01-30T18:22:07.661Z,12.57
2023-01-30T18:24:34.447Z,11.23
2023-01-30T18:27:01.969Z,11.45
2023-01-30T18:29:30.826Z,20.67
2023-01-30T18:32:04.781Z,11.73
2023-01-30T18:34:32.340Z,12.95
2023-01-30T18:36:59.081Z,12.25
2023-01-30T18:39:25.714Z,15.82
2023-01-30T18:41:52.344Z,14.45
2023-01-30T18:44:19.104Z,12.88
2023-01-30T18:46:48.506Z,12.23
2023-01-30T18:49:15.102Z,11.27
2023-01-30T18:51:41.740Z,12.55
2023-01-30T18:54:10.606Z,10.90
2023-01-30T18:56:39.727Z,11.32
2023-01-30T18:59:06.897Z,12.70
2023-01-30T19:01:40.582Z,10.63
2023-01-30T19:04:12.170Z,11.07
2023-01-30T19:06:43.061Z,12.73
2023-01-30T19:09:19.176Z,14.32
2023-01-30T19:12:04.282Z,10.85
2023-01-30T19:14:31.119Z,9.85
2023-01-30T19:16:57.741Z,10.23
2023-01-30T19:19:27.200Z,8.65
2023-01-30T19:21:56.871Z,8.57
2023-01-30T19:24:26.249Z,7.00
2023-01-30T19:26:52.968Z,9.32
2023-01-30T19:29:20.845Z,8.15
2023-01-30T19:31:49.972Z,9.90
2023-01-30T19:34:23.699Z,9.50
2023-01-30T19:36:50.341Z,10.15
2023-01-30T19:39:21.214Z,10.63
2023-01-30T19:41:47.836Z,9.23
2023-01-30T19:44:14.504Z,5.15
2023-01-30T19:46:41.235Z,5.72
2023-01-30T19:49:07.890Z,4.88
2023-01-30T19:51:35.050Z,8.57
2023-01-30T19:54:06.907Z,12.40
2023-01-30T19:56:34.361Z,8.43
2023-01-30T19:59:02.240Z,7.55
2023-01-30T20:01:32.688Z,5.68
2023-01-30T20:04:00.662Z,9.15
2023-01-30T20:06:30.709Z,7.95
2023-01-30T20:09:05.476Z,11.85
2023-01-30T20:11:39.587Z,8.07
2023-01-30T20:14:07.011Z,7.68
2023-01-30T20:16:35.652Z,13.35
2023-01-30T20:19:05.175Z,11.68
2023-01-30T20:21:34.360Z,12.45
2023-01-30T20:24:03.649Z,12.02
2023-01-30T20:26:34.991Z,9.98
2023-01-30T20:29:03.377Z,16.73
2023-01-30T20:31:34.639Z,12.50
2023-01-30T20:34:03.243Z,10.32
2023-01-30T20:36:29.922Z,13.68
2023-01-30T20:39:01.675Z,19.95
2023-01-30T20:41:28.395Z,15.38
2023-01-30T20:44:01.817Z,17.42
2023-01-30T20:46:42.359Z,11.07
2023-01-30T20:49:15.031Z,19.55
2023-01-30T20:51:45.618Z,14.98
2023-01-30T20:54:14.567Z,12.13
2023-01-30T20:56:44.126Z,9.80
2023-01-30T20:59:16.892Z,14.80
2023-01-30T21:01:44.142Z,11.63
2023-01-30T21:04:13.844Z,15.88
2023-01-30T21:06:46.023Z,24.55
2023-01-30T21:09:23.767Z,12.50
2023-01-30T21:11:55.338Z,15.95
2023-01-30T21:14:25.683Z,14.40
2023-01-30T21:16:53.421Z,16.85
2023-01-30T21:19:22.216Z,16.35
2023-01-30T21:21:53.253Z,16.45
2023-01-30T21:24:26.547Z,14.40
2023-01-30T21:26:59.283Z,18.30
2023-01-30T21:29:28.548Z,15.43
2023-01-30T21:31:57.367Z,12.30
2023-01-30T21:34:27.220Z,13.30
2023-01-30T21:37:12.418Z,14.00
2023-01-30T21:39:59.858Z,12.07
2023-01-30T21:42:45.432Z,17.73
2023-01-30T21:45:12.241Z,13.63
2023-01-30T21:47:38.977Z,12.63
2023-01-30T21:50:06.214Z,14.20
2023-01-30T21:52:33.284Z,11.75
2023-01-30T21:55:05.221Z,18.05
2023-01-30T21:57:31.883Z,16.73
2023-01-30T22:00:01.356Z,21.23
2023-01-30T22:02:30.547Z,14.05
2023-01-30T22:05:02.167Z,15.63
2023-01-30T22:07:30.074Z,17.67
2023-01-30T22:09:57.121Z,10.23
2023-01-30T22:12:29.028Z,11.85
2023-01-30T22:14:55.758Z,11.90
2023-01-30T22:17:22.830Z,16.95
2023-01-30T22:19:51.925Z,15.75
2023-01-30T22:22:19.048Z,13.75
2023-01-30T22:24:48.172Z,19.45
2023-01-30T22:27:16.253Z,13.80
2023-01-30T22:29:42.937Z,12.68
2023-01-30T22:32:12.038Z,14.10
2023-01-30T22:34:42.141Z,17.27
2023-01-30T22:37:13.670Z,11.57
2023-01-30T22:39:40.856Z,11.48
2023-01-30T22:42:10.616Z,11.95
2023-01-30T22:44:39.497Z,15.82
2023-01-30T22:47:06.315Z,15.80
2023-01-30T22:49:32.921Z,15.32
2023-01-30T22:52:02.070Z,12.80
2023-01-30T22:54:31.868Z,12.57
2023-01-30T22:56:58.490Z,18.05
2023-01-30T22:59:25.204Z,12.48
2023-01-30T23:01:51.927Z,15.25
2023-01-30T23:04:23.412Z,12.80
2023-01-30T23:06:52.768Z,9.65
2023-01-30T23:09:22.101Z,12.75
2023-01-30T23:12:15.820Z,15.77
2023-01-30T23:14:42.988Z,11.32
2023-01-30T23:17:28.725Z,10.57
2023-01-30T23:20:04.715Z,12.75
2023-01-30T23:22:33.772Z,16.70
2023-01-30T23:25:00.417Z,11.73
2023-01-30T23:27:29.341Z,13.90
2023-01-30T23:30:03.555Z,17.00
